Hillsview, South Dakota
Current Conditions -  °F | °C
As of 7:52 PM on Wednesday 26 Nov 2014 (Local Time) from KMBG Reporting Station
Clear Clear  
Wind Chill: -8°   Ceiling: Unl
Heat Index:   Visibility: 10mi
Dew Point:   Wind: 10mph
Humidity: 77%   Direction: 70°ENE
Pressure: 30.41"   Gusts: NA
Location:  45.7737°N, 99.5895°W
Report Text: KMBG 270152Z AUTO 07009KT 10SM CLR M14/M17 A3041 RMK AO2 SLP338 T11391172
Loading
Personal Weather Stations






























Interactive Weather Map New forecast layout! Learn more

10-Day Weather Forecast

Advertisements
Track Severe Weather on mobile